createdAt,value
2022-07-28T00:00:53.096Z,101541.19
2022-07-28T00:03:19.862Z,101546.53
2022-07-28T00:05:47.283Z,101544.69
2022-07-28T00:08:16.731Z,101537.59
2022-07-28T00:10:43.479Z,101532.75
2022-07-28T00:13:10.202Z,101525.16
2022-07-28T00:15:37.389Z,101543.47
2022-07-28T00:18:04.128Z,101537.28
2022-07-28T00:20:31.170Z,101531.03
2022-07-28T00:22:57.916Z,101518.13
2022-07-28T00:25:24.761Z,101518.50
2022-07-28T00:27:51.529Z,101520.00
2022-07-28T00:30:18.178Z,101522.09
2022-07-28T00:32:45.257Z,101532.75
2022-07-28T00:35:12.561Z,101526.38
2022-07-28T00:37:41.836Z,101520.84
2022-07-28T00:40:09.363Z,101528.38
2022-07-28T00:42:36.087Z,101519.03
2022-07-28T00:45:03.292Z,101515.59
2022-07-28T00:47:33.830Z,101510.13
2022-07-28T00:50:02.148Z,101518.63
2022-07-28T00:52:28.969Z,101524.75
2022-07-28T00:54:56.869Z,101530.69
2022-07-28T00:57:23.680Z,101519.03
2022-07-28T00:59:50.415Z,101509.13
2022-07-28T01:02:17.419Z,101515.97
2022-07-28T01:04:44.282Z,101518.97
2022-07-28T01:07:13.569Z,101531.56
2022-07-28T01:09:40.205Z,101525.44
2022-07-28T01:12:44.360Z,101528.13
2022-07-28T01:15:42.581Z,101521.28
2022-07-28T01:18:17.303Z,101509.44
2022-07-28T01:21:08.257Z,101500.13
2022-07-28T01:23:50.059Z,101525.66
2022-07-28T01:26:28.795Z,101517.72
2022-07-28T01:29:04.070Z,101533.06
2022-07-28T01:31:39.670Z,101520.47
2022-07-28T01:34:10.985Z,101515.31
2022-07-28T01:36:52.286Z,101501.50
2022-07-28T01:39:20.893Z,101514.44
2022-07-28T01:41:49.875Z,101511.72
2022-07-28T01:44:20.350Z,101517.88
2022-07-28T01:46:48.901Z,101505.72
2022-07-28T01:49:18.549Z,101505.88
2022-07-28T01:51:46.911Z,101505.88
2022-07-28T01:54:15.834Z,101505.72
2022-07-28T01:56:43.830Z,101520.56
2022-07-28T01:59:12.573Z,101517.88
2022-07-28T02:01:44.356Z,101518.81
2022-07-28T02:04:12.645Z,101493.88
2022-07-28T02:06:42.435Z,101488.19
2022-07-28T02:09:10.598Z,101519.72
2022-07-28T02:11:40.570Z,101515.97
2022-07-28T02:14:17.105Z,101506.03
2022-07-28T02:17:02.194Z,101509.91
2022-07-28T02:19:30.219Z,101514.72
2022-07-28T02:21:57.086Z,101503.72
2022-07-28T02:24:28.560Z,101510.50
2022-07-28T02:27:11.945Z,101514.78
2022-07-28T02:29:51.244Z,101497.66
2022-07-28T02:32:33.634Z,101514.56
2022-07-28T02:35:09.546Z,101495.91
2022-07-28T02:37:40.213Z,101517.06
2022-07-28T02:40:12.141Z,101502.22
2022-07-28T02:42:40.758Z,101509.16
2022-07-28T02:45:10.204Z,101511.47
2022-07-28T02:47:44.240Z,101496.72
2022-07-28T02:50:12.943Z,101507.75
2022-07-28T02:52:41.850Z,101499.59
2022-07-28T02:55:11.226Z,101490.13
2022-07-28T02:57:40.940Z,101506.69
2022-07-28T03:00:08.534Z,101503.53
2022-07-28T03:02:36.849Z,101505.19
2022-07-28T03:05:11.207Z,101504.19
2022-07-28T03:07:43.803Z,101492.91
2022-07-28T03:10:34.282Z,101500.25
2022-07-28T03:13:07.164Z,101519.41
2022-07-28T03:15:35.627Z,101514.50
2022-07-28T03:18:04.434Z,101499.03
2022-07-28T03:20:31.480Z,101506.91
2022-07-28T03:22:59.380Z,101502.66
2022-07-28T03:25:43.285Z,101509.88
2022-07-28T03:28:15.230Z,101500.84
2022-07-28T03:30:45.527Z,101491.81
2022-07-28T03:33:12.814Z,101474.41
2022-07-28T03:35:43.747Z,101478.78
2022-07-28T03:38:23.933Z,101495.50
2022-07-28T03:40:55.096Z,101500.03
2022-07-28T03:43:25.185Z,101490.41
2022-07-28T03:45:52.075Z,101487.19
2022-07-28T03:48:18.791Z,101478.16
2022-07-28T03:50:45.539Z,101501.47
2022-07-28T03:53:30.382Z,101497.28
2022-07-28T03:55:58.201Z,101487.78
2022-07-28T03:58:28.896Z,101468.97
2022-07-28T04:00:57.086Z,101486.81
2022-07-28T04:03:42.872Z,101503.84
2022-07-28T04:06:15.429Z,101485.13
2022-07-28T04:08:43.623Z,101496.34
2022-07-28T04:11:10.310Z,101483.44
2022-07-28T04:13:37.533Z,101477.63
2022-07-28T04:16:07.197Z,101506.16
2022-07-28T04:18:34.324Z,101500.72
2022-07-28T04:21:01.131Z,101506.63
2022-07-28T04:23:28.211Z,101488.53
2022-07-28T04:25:55.451Z,101496.00
2022-07-28T04:28:22.422Z,101491.75
2022-07-28T04:30:49.124Z,101500.91
2022-07-28T04:33:16.047Z,101488.66
2022-07-28T04:35:42.723Z,101506.09
2022-07-28T04:38:09.442Z,101480.91
2022-07-28T04:40:36.258Z,101495.56
2022-07-28T04:43:04.154Z,101494.06
2022-07-28T04:45:31.123Z,101486.19
2022-07-28T04:47:57.927Z,101488.84
2022-07-28T04:50:25.007Z,101503.91
2022-07-28T04:52:51.914Z,101486.78
2022-07-28T04:55:18.771Z,101482.53
2022-07-28T04:57:45.642Z,101479.75
2022-07-28T05:00:15.080Z,101487.56
2022-07-28T05:02:43.580Z,101478.28
2022-07-28T05:05:11.085Z,101471.47
2022-07-28T05:07:39.000Z,101489.47
2022-07-28T05:10:07.679Z,101474.41
2022-07-28T05:12:34.358Z,101474.50
2022-07-28T05:15:01.179Z,101465.56
2022-07-28T05:17:27.885Z,101478.88
2022-07-28T05:19:54.733Z,101480.09
2022-07-28T05:22:21.415Z,101479.41
2022-07-28T05:24:48.122Z,101487.19
2022-07-28T05:27:15.006Z,101485.31
2022-07-28T05:29:47.082Z,101488.38
2022-07-28T05:32:16.599Z,101480.16
2022-07-28T05:34:45.488Z,101486.66
2022-07-28T05:37:12.419Z,101489.13
2022-07-28T05:39:39.450Z,101454.19
2022-07-28T05:42:06.366Z,101477.75
2022-07-28T05:44:37.833Z,101471.75
2022-07-28T05:47:05.689Z,101482.00
2022-07-28T05:49:32.559Z,101491.72
2022-07-28T05:51:59.390Z,101477.34
2022-07-28T05:54:26.209Z,101474.28
2022-07-28T05:56:53.170Z,101467.75
2022-07-28T05:59:19.901Z,101487.41
2022-07-28T06:01:46.914Z,101488.06
2022-07-28T06:04:25.671Z,101474.91
2022-07-28T06:06:54.972Z,101465.19
2022-07-28T06:09:21.737Z,101465.25
2022-07-28T06:11:50.728Z,101477.22
2022-07-28T06:14:18.816Z,101490.69
2022-07-28T06:16:51.240Z,101474.47
2022-07-28T06:19:19.210Z,101478.84
2022-07-28T06:21:46.024Z,101467.91
2022-07-28T06:24:13.111Z,101487.75
2022-07-28T06:26:44.261Z,101460.78
2022-07-28T06:29:14.266Z,101454.53
2022-07-28T06:31:41.094Z,101496.75
2022-07-28T06:34:09.822Z,101457.91
2022-07-28T06:36:36.598Z,101452.50
2022-07-28T06:39:03.490Z,101412.44
2022-07-28T06:41:30.213Z,101432.56
2022-07-28T06:43:57.018Z,101453.25
2022-07-28T06:46:23.840Z,101500.25
2022-07-28T06:48:50.743Z,101460.53
2022-07-28T06:51:20.417Z,101460.28
2022-07-28T06:53:48.703Z,101511.25
2022-07-28T06:56:16.329Z,101506.66
2022-07-28T06:58:46.498Z,101467.03
2022-07-28T07:01:17.585Z,101487.69
2022-07-28T07:03:54.820Z,101484.97
2022-07-28T07:06:21.549Z,101487.34
2022-07-28T07:08:48.547Z,101517.41
2022-07-28T07:11:15.398Z,101465.28
2022-07-28T07:13:42.127Z,101499.72
2022-07-28T07:16:11.880Z,101469.88
2022-07-28T07:18:38.697Z,101478.31
2022-07-28T07:21:05.391Z,101455.28
2022-07-28T07:23:32.241Z,101492.50
2022-07-28T07:25:59.178Z,101477.56
2022-07-28T07:28:25.936Z,101481.63
2022-07-28T07:30:53.034Z,101477.09
2022-07-28T07:33:23.227Z,101480.81
2022-07-28T07:35:49.915Z,101480.03
2022-07-28T07:38:17.755Z,101453.16
2022-07-28T07:40:44.627Z,101506.78
2022-07-28T07:43:11.389Z,101469.56
2022-07-28T07:45:40.267Z,101495.97
2022-07-28T07:48:07.534Z,101495.00
2022-07-28T07:50:35.190Z,101509.66
2022-07-28T07:53:02.075Z,101510.50
2022-07-28T07:55:34.593Z,101485.44
2022-07-28T07:58:05.104Z,101493.09
2022-07-28T08:00:31.964Z,101502.38
2022-07-28T08:02:59.180Z,101487.69
2022-07-28T08:05:35.754Z,101484.72
2022-07-28T08:08:05.301Z,101504.06
2022-07-28T08:10:33.279Z,101503.09
2022-07-28T08:13:00.014Z,101482.88
2022-07-28T08:15:26.811Z,101454.28
2022-07-28T08:17:53.544Z,101461.03
2022-07-28T08:20:20.492Z,101466.75
2022-07-28T08:22:55.284Z,101501.03
2022-07-28T08:25:22.994Z,101513.97
2022-07-28T08:27:50.150Z,101479.66
2022-07-28T08:30:23.118Z,101500.63
2022-07-28T08:32:57.061Z,101502.22
2022-07-28T08:35:34.611Z,101462.13
2022-07-28T08:38:03.909Z,101490.22
2022-07-28T08:40:32.679Z,101509.47
2022-07-28T08:43:14.666Z,101517.63
2022-07-28T08:45:44.549Z,101467.88
2022-07-28T08:48:12.354Z,101499.75
2022-07-28T08:50:39.650Z,101508.09
2022-07-28T08:53:08.188Z,101493.22
2022-07-28T08:55:36.233Z,101524.63
2022-07-28T08:58:04.272Z,101488.19
2022-07-28T09:00:31.643Z,101531.09
2022-07-28T09:03:03.504Z,101501.78
2022-07-28T09:05:31.126Z,101507.31
2022-07-28T09:07:58.722Z,101510.38
2022-07-28T09:10:25.579Z,101488.53
2022-07-28T09:12:52.519Z,101468.69
2022-07-28T09:15:19.533Z,101516.53
2022-07-28T09:17:46.376Z,101503.78
2022-07-28T09:20:14.025Z,101459.84
2022-07-28T09:23:01.948Z,101490.75
2022-07-28T09:25:30.058Z,101491.03
2022-07-28T09:28:05.198Z,101497.63
2022-07-28T09:30:34.178Z,101485.34
2022-07-28T09:33:42.060Z,101502.66
2022-07-28T09:36:02.304Z,101438.25
2022-07-28T09:38:40.541Z,101477.22
2022-07-28T09:41:07.762Z,101492.41
2022-07-28T09:43:43.498Z,101461.44
2022-07-28T09:46:15.283Z,101504.22
2022-07-28T09:48:59.222Z,101502.06
2022-07-28T09:51:31.203Z,101496.25
2022-07-28T09:54:13.831Z,101476.31
2022-07-28T09:56:45.875Z,101456.13
2022-07-28T09:59:14.594Z,101482.16
2022-07-28T10:02:02.182Z,101507.16
2022-07-28T10:04:41.222Z,101479.59
2022-07-28T10:07:14.339Z,101481.97
2022-07-28T10:09:41.919Z,101468.41
2022-07-28T10:12:22.734Z,101511.97
2022-07-28T10:14:52.027Z,101483.97
2022-07-28T10:17:29.951Z,101478.72
2022-07-28T10:19:58.762Z,101519.19
2022-07-28T10:22:42.804Z,101468.75
2022-07-28T10:25:12.798Z,101452.53
2022-07-28T10:27:46.206Z,101505.09
2022-07-28T10:30:13.503Z,101442.28
2022-07-28T10:32:43.143Z,101458.34
2022-07-28T10:35:15.896Z,101489.19
2022-07-28T10:37:59.590Z,101478.66
2022-07-28T10:40:30.350Z,101486.41
2022-07-28T10:42:58.752Z,101475.81
2022-07-28T10:45:48.088Z,101494.13
2022-07-28T10:48:15.494Z,101470.91
2022-07-28T10:50:43.174Z,101504.38
2022-07-28T10:53:12.201Z,101485.25
2022-07-28T10:55:59.847Z,101467.09
2022-07-28T10:58:29.422Z,101494.22
2022-07-28T11:00:59.902Z,101499.66
2022-07-28T11:03:47.264Z,101491.66
2022-07-28T11:06:24.299Z,101497.00
2022-07-28T11:08:53.744Z,101468.44
2022-07-28T11:11:52.260Z,101496.97
2022-07-28T11:14:22.950Z,101495.38
2022-07-28T11:17:11.561Z,101493.56
2022-07-28T11:20:00.788Z,101506.00
2022-07-28T11:22:33.453Z,101482.34
2022-07-28T11:25:18.819Z,101501.56
2022-07-28T11:27:51.342Z,101499.56
2022-07-28T11:30:29.178Z,101504.53
2022-07-28T11:32:57.036Z,101499.09
2022-07-28T11:35:25.113Z,101498.56
2022-07-28T11:38:00.917Z,101495.53
2022-07-28T11:40:31.287Z,101499.09
2022-07-28T11:43:36.007Z,101491.59
2022-07-28T11:46:07.075Z,101492.91
2022-07-28T11:48:37.514Z,101466.19
2022-07-28T11:51:04.323Z,101482.56
2022-07-28T11:53:43.941Z,101479.75
2022-07-28T11:56:13.877Z,101478.41
2022-07-28T11:58:41.967Z,101499.56
2022-07-28T12:01:17.375Z,101497.28
2022-07-28T12:03:55.863Z,101498.44
2022-07-28T12:06:36.088Z,101429.78
2022-07-28T12:09:10.546Z,101466.50
2022-07-28T12:11:39.063Z,101455.25
2022-07-28T12:14:14.802Z,101493.09
2022-07-28T12:16:44.736Z,101482.03
2022-07-28T12:19:15.884Z,101470.25
2022-07-28T12:21:52.917Z,101488.56
2022-07-28T12:24:27.577Z,101483.06
2022-07-28T12:26:55.055Z,101481.63
2022-07-28T12:29:21.916Z,101450.66
2022-07-28T12:32:00.512Z,101478.53
2022-07-28T12:34:29.292Z,101452.97
2022-07-28T12:36:59.003Z,101475.31
2022-07-28T12:39:26.426Z,101449.28
2022-07-28T12:42:05.286Z,101478.03
2022-07-28T12:44:36.732Z,101454.78
2022-07-28T12:47:09.025Z,101453.63
2022-07-28T12:49:37.539Z,101466.84
2022-07-28T12:52:24.810Z,101454.69
2022-07-28T12:54:55.545Z,101473.16
2022-07-28T12:57:48.642Z,101482.66
2022-07-28T13:00:19.684Z,101472.63
2022-07-28T13:02:47.306Z,101462.50
2022-07-28T13:05:28.109Z,101462.66
2022-07-28T13:08:05.301Z,101465.78
2022-07-28T13:10:33.338Z,101457.53
2022-07-28T13:13:02.303Z,101475.03
2022-07-28T13:15:29.151Z,101437.78
2022-07-28T13:17:57.419Z,101469.50
2022-07-28T13:20:24.823Z,101465.25
2022-07-28T13:22:52.770Z,101460.78
2022-07-28T13:25:20.843Z,101458.44
2022-07-28T13:27:52.289Z,101427.34
2022-07-28T13:30:21.864Z,101422.22
2022-07-28T13:32:49.795Z,101465.72
2022-07-28T13:35:18.890Z,101410.97
2022-07-28T13:37:46.275Z,101465.56
2022-07-28T13:40:13.257Z,101439.44
2022-07-28T13:42:40.184Z,101424.00
2022-07-28T13:45:21.443Z,101449.56
2022-07-28T13:47:52.381Z,101438.91
2022-07-28T13:50:20.873Z,101445.38
2022-07-28T13:52:48.271Z,101457.13
2022-07-28T13:55:17.755Z,101437.72
2022-07-28T13:57:49.119Z,101424.63
2022-07-28T14:00:18.241Z,101451.16
2022-07-28T14:02:47.299Z,101457.72
2022-07-28T14:05:14.622Z,101464.66
2022-07-28T14:07:42.873Z,101460.53
2022-07-28T14:10:15.697Z,101448.56
2022-07-28T14:12:42.478Z,101420.72
2022-07-28T14:15:12.054Z,101457.59
2022-07-28T14:17:43.364Z,101442.41
2022-07-28T14:20:12.519Z,101452.66
2022-07-28T14:22:39.266Z,101428.50
2022-07-28T14:25:06.406Z,101450.28
2022-07-28T14:27:33.539Z,101425.84
2022-07-28T14:30:03.270Z,101400.97
2022-07-28T14:32:31.759Z,101419.97
2022-07-28T14:34:58.641Z,101443.75
2022-07-28T14:37:25.424Z,101416.72
2022-07-28T14:39:52.152Z,101396.97
2022-07-28T14:42:19.384Z,101408.75
2022-07-28T14:44:46.152Z,101438.88
2022-07-28T14:47:12.982Z,101425.44
2022-07-28T14:49:57.489Z,101421.81
2022-07-28T14:52:26.719Z,101430.06
2022-07-28T14:54:54.732Z,101449.38
2022-07-28T14:57:45.905Z,101447.81
2022-07-28T15:00:10.299Z,101447.59
2022-07-28T15:02:37.135Z,101422.78
2022-07-28T15:05:04.416Z,101409.13
2022-07-28T15:07:31.328Z,101419.19
2022-07-28T15:09:58.107Z,101376.78
2022-07-28T15:12:24.875Z,101396.72
2022-07-28T15:14:51.644Z,101420.88
2022-07-28T15:17:19.838Z,101384.84
2022-07-28T15:19:47.238Z,101424.72
2022-07-28T15:22:14.198Z,101423.03
2022-07-28T15:24:42.290Z,101381.66
2022-07-28T15:27:12.694Z,101407.03
2022-07-28T15:29:39.671Z,101416.41
2022-07-28T15:32:09.644Z,101416.31
2022-07-28T15:34:39.528Z,101417.69
2022-07-28T15:37:07.375Z,101382.66
2022-07-28T15:39:37.960Z,101426.53
2022-07-28T15:42:06.435Z,101400.91
2022-07-28T15:44:33.146Z,101361.34
2022-07-28T15:46:59.899Z,101399.44
2022-07-28T15:49:30.469Z,101360.88
2022-07-28T15:51:57.889Z,101346.78
2022-07-28T15:54:25.036Z,101400.25
2022-07-28T15:56:51.971Z,101376.22
2022-07-28T15:59:18.937Z,101372.41
2022-07-28T16:01:45.899Z,101376.22
2022-07-28T16:04:13.038Z,101368.75
2022-07-28T16:06:58.465Z,101362.03
2022-07-28T16:09:25.158Z,101374.97
2022-07-28T16:12:13.013Z,101386.09
2022-07-28T16:14:42.010Z,101384.28
2022-07-28T16:17:10.064Z,101394.44
2022-07-28T16:19:48.884Z,101380.97
2022-07-28T16:22:17.799Z,101395.69
2022-07-28T16:24:45.496Z,101389.97
2022-07-28T16:27:12.315Z,101427.38
2022-07-28T16:29:39.053Z,101381.25
2022-07-28T16:32:05.909Z,101412.84
2022-07-28T16:34:32.684Z,101378.44
2022-07-28T16:36:59.661Z,101402.75
2022-07-28T16:39:26.377Z,101399.25
2022-07-28T16:41:53.258Z,101397.91
2022-07-28T16:44:20.723Z,101424.97
2022-07-28T16:46:47.903Z,101395.88
2022-07-28T16:49:16.274Z,101384.94
2022-07-28T16:51:43.288Z,101394.72
2022-07-28T16:54:10.111Z,101376.44
2022-07-28T16:56:36.796Z,101381.53
2022-07-28T16:59:03.967Z,101366.47
2022-07-28T17:01:30.888Z,101351.44
2022-07-28T17:03:57.855Z,101371.94
2022-07-28T17:06:25.259Z,101411.75
2022-07-28T17:08:51.975Z,101372.66
2022-07-28T17:11:18.778Z,101373.75
2022-07-28T17:13:45.725Z,101412.53
2022-07-28T17:16:13.292Z,101410.69
2022-07-28T17:18:40.350Z,101422.75
2022-07-28T17:21:07.369Z,101410.03
2022-07-28T17:23:36.398Z,101374.09
2022-07-28T17:28:54.077Z,101391.13
2022-07-28T17:31:21.090Z,101372.72
2022-07-28T17:33:47.916Z,101395.47
2022-07-28T17:36:16.006Z,101370.06
2022-07-28T17:38:43.195Z,101382.50
2022-07-28T17:41:10.129Z,101398.84
2022-07-28T17:43:41.029Z,101396.59
2022-07-28T17:46:10.861Z,101378.03
2022-07-28T17:48:38.972Z,101370.66
2022-07-28T17:51:06.007Z,101398.03
2022-07-28T17:53:33.730Z,101397.31
2022-07-28T17:56:06.982Z,101389.53
2022-07-28T17:58:36.246Z,101401.06
2022-07-28T18:01:10.305Z,101415.66
2022-07-28T18:03:58.692Z,101401.09
2022-07-28T18:06:35.603Z,101411.47
2022-07-28T18:09:10.113Z,101388.00
2022-07-28T18:11:57.192Z,101370.31
2022-07-28T18:14:26.550Z,101390.78
2022-07-28T18:16:53.267Z,101385.81
2022-07-28T18:19:20.002Z,101411.59
2022-07-28T18:21:46.694Z,101400.63
2022-07-28T18:24:13.811Z,101434.44
2022-07-28T18:26:40.820Z,101407.63
2022-07-28T18:29:07.605Z,101413.88
2022-07-28T18:31:34.359Z,101406.16
2022-07-28T18:34:01.140Z,101398.19
2022-07-28T18:36:27.976Z,101409.03
2022-07-28T18:38:54.654Z,101382.38
2022-07-28T18:41:21.405Z,101400.16
2022-07-28T18:43:48.101Z,101414.72
2022-07-28T18:46:14.953Z,101423.19
2022-07-28T18:48:41.872Z,101409.50
2022-07-28T18:51:08.594Z,101393.47
2022-07-28T18:53:36.459Z,101371.09
2022-07-28T18:56:03.274Z,101392.25
2022-07-28T18:58:29.943Z,101391.81
2022-07-28T19:00:56.902Z,101413.00
2022-07-28T19:03:23.649Z,101411.44
2022-07-28T19:05:50.965Z,101401.09
2022-07-28T19:08:17.729Z,101401.00
2022-07-28T19:10:44.445Z,101390.25
2022-07-28T19:13:12.803Z,101407.44
2022-07-28T19:15:41.638Z,101395.69
2022-07-28T19:18:10.699Z,101401.03
2022-07-28T19:20:44.508Z,101426.69
2022-07-28T19:23:11.453Z,101421.38
2022-07-28T19:25:41.409Z,101420.47
2022-07-28T19:28:08.407Z,101416.09
2022-07-28T19:30:35.296Z,101433.59
2022-07-28T19:33:03.044Z,101432.06
2022-07-28T19:35:30.331Z,101433.50
2022-07-28T19:38:00.264Z,101425.84
2022-07-28T19:40:29.798Z,101405.00
2022-07-28T19:42:56.845Z,101414.66
2022-07-28T19:45:24.135Z,101418.31
2022-07-28T19:47:51.379Z,101438.81
2022-07-28T19:50:18.477Z,101414.91
2022-07-28T19:52:45.170Z,101424.25
2022-07-28T19:55:12.755Z,101433.88
2022-07-28T19:57:42.245Z,101438.31
2022-07-28T20:00:10.290Z,101424.41
2022-07-28T20:02:38.088Z,101416.25
2022-07-28T20:05:05.921Z,101428.06
2022-07-28T20:07:32.689Z,101435.22
2022-07-28T20:10:01.121Z,101417.97
2022-07-28T20:12:31.607Z,101435.47
2022-07-28T20:15:03.090Z,101426.78
2022-07-28T20:17:38.067Z,101444.53
2022-07-28T20:20:11.753Z,101445.13
2022-07-28T20:22:40.230Z,101434.56
2022-07-28T20:25:09.316Z,101426.50
2022-07-28T20:27:40.531Z,101436.84
2022-07-28T20:30:12.998Z,101437.03
2022-07-28T20:32:42.147Z,101442.03
2022-07-28T20:35:10.263Z,101436.16
2022-07-28T20:37:37.910Z,101435.84
2022-07-28T20:40:06.665Z,101444.28
2022-07-28T20:42:33.576Z,101429.66
2022-07-28T20:45:00.236Z,101424.66
2022-07-28T20:47:28.230Z,101436.47
2022-07-28T20:49:55.655Z,101444.78
2022-07-28T20:52:22.539Z,101426.41
2022-07-28T20:54:53.998Z,101439.13
2022-07-28T20:57:21.617Z,101431.50
2022-07-28T20:59:49.126Z,101409.50
2022-07-28T21:02:16.198Z,101432.19
2022-07-28T21:04:43.629Z,101435.41
2022-07-28T21:07:10.984Z,101447.84
2022-07-28T21:09:39.644Z,101439.47
2022-07-28T21:12:09.480Z,101436.38
2022-07-28T21:14:36.158Z,101448.72
2022-07-28T21:17:02.909Z,101402.78
2022-07-28T21:19:32.542Z,101428.38
2022-07-28T21:21:59.437Z,101449.09
2022-07-28T21:24:26.436Z,101451.66
2022-07-28T21:26:53.645Z,101452.22
2022-07-28T21:32:04.788Z,101428.78
2022-07-28T21:34:35.623Z,101442.75
2022-07-28T21:37:04.773Z,101427.53
2022-07-28T21:39:32.001Z,101450.50
2022-07-28T21:41:59.014Z,101441.00
2022-07-28T21:44:25.662Z,101453.72
2022-07-28T21:46:55.380Z,101454.50
2022-07-28T21:49:22.113Z,101454.25
2022-07-28T21:51:48.886Z,101451.16
2022-07-28T21:54:15.907Z,101452.66
2022-07-28T21:56:42.923Z,101425.84
2022-07-28T21:59:09.778Z,101441.63
2022-07-28T22:01:36.651Z,101411.25
2022-07-28T22:04:03.719Z,101443.75
2022-07-28T22:06:30.649Z,101426.22
2022-07-28T22:08:57.372Z,101443.44
2022-07-28T22:11:24.104Z,101440.50
2022-07-28T22:13:50.840Z,101445.00
2022-07-28T22:16:17.714Z,101435.31
2022-07-28T22:18:44.522Z,101427.66
2022-07-28T22:21:11.267Z,101445.75
2022-07-28T22:23:38.083Z,101423.47
2022-07-28T22:26:04.799Z,101427.38
2022-07-28T22:28:31.512Z,101410.47
2022-07-28T22:31:09.319Z,101443.59
2022-07-28T22:33:40.406Z,101441.38
2022-07-28T22:36:09.080Z,101441.16
2022-07-28T22:38:36.187Z,101413.59
2022-07-28T22:41:02.954Z,101439.22
2022-07-28T22:43:32.575Z,101444.44
2022-07-28T22:45:59.458Z,101421.72
2022-07-28T22:48:26.361Z,101428.41
2022-07-28T22:50:53.173Z,101411.72
2022-07-28T22:53:19.890Z,101418.84
2022-07-28T22:58:30.796Z,101421.34
2022-07-28T23:00:58.382Z,101422.13
2022-07-28T23:03:25.923Z,101426.00
2022-07-28T23:06:02.195Z,101421.59
2022-07-28T23:08:28.973Z,101424.63
2022-07-28T23:10:55.780Z,101382.34
2022-07-28T23:13:22.850Z,101434.25
2022-07-28T23:15:50.605Z,101400.97
2022-07-28T23:18:17.467Z,101422.81
2022-07-28T23:20:45.233Z,101427.81
2022-07-28T23:23:14.474Z,101424.06
2022-07-28T23:25:42.976Z,101425.69
2022-07-28T23:28:10.499Z,101399.75
2022-07-28T23:30:37.870Z,101417.06
2022-07-28T23:33:05.643Z,101425.44
2022-07-28T23:35:32.686Z,101402.59
2022-07-28T23:37:59.427Z,101404.03
2022-07-28T23:40:26.317Z,101404.13
2022-07-28T23:42:53.032Z,101390.44
2022-07-28T23:45:19.894Z,101369.75
2022-07-28T23:47:46.762Z,101399.97
2022-07-28T23:50:13.662Z,101410.75
2022-07-28T23:52:40.479Z,101393.19
2022-07-28T23:55:07.959Z,101403.78
2022-07-28T23:57:34.809Z,101380.50
